createdAt,value
2024-03-20T00:00:53.064Z,662.00
2024-03-20T00:01:53.072Z,657.00
2024-03-20T00:02:53.068Z,655.00
2024-03-20T00:03:53.071Z,653.00
2024-03-20T00:04:53.077Z,659.00
2024-03-20T00:05:53.080Z,661.00
2024-03-20T00:06:53.083Z,657.00
2024-03-20T00:07:53.093Z,659.00
2024-03-20T00:08:53.082Z,663.00
2024-03-20T00:09:53.077Z,662.00
2024-03-20T00:10:53.084Z,661.00
2024-03-20T00:11:53.096Z,663.00
2024-03-20T00:12:53.083Z,661.00
2024-03-20T00:13:53.098Z,659.00
2024-03-20T00:14:53.080Z,652.00
2024-03-20T00:15:53.066Z,653.00
2024-03-20T00:16:53.063Z,654.00
2024-03-20T00:17:53.067Z,653.00
2024-03-20T00:18:53.075Z,656.00
2024-03-20T00:19:53.082Z,656.00
2024-03-20T00:20:53.093Z,656.00
2024-03-20T00:21:53.102Z,659.00
2024-03-20T00:22:53.093Z,659.00
2024-03-20T00:23:53.082Z,657.00
2024-03-20T00:24:53.083Z,657.00
2024-03-20T00:25:53.080Z,661.00
2024-03-20T00:26:55.435Z,660.00
2024-03-20T00:27:53.097Z,658.00
2024-03-20T00:28:53.109Z,660.00
2024-03-20T00:29:53.123Z,659.00
2024-03-20T00:30:53.159Z,659.00
2024-03-20T00:31:53.161Z,657.00
2024-03-20T00:32:53.174Z,656.00
2024-03-20T00:33:53.186Z,658.00
2024-03-20T00:34:53.217Z,658.00
2024-03-20T00:37:53.244Z,651.00
2024-03-20T00:38:53.233Z,652.00
2024-03-20T00:39:53.220Z,651.00
2024-03-20T00:40:53.251Z,653.00
2024-03-20T00:41:53.227Z,652.00
2024-03-20T00:42:53.244Z,651.00
2024-03-20T00:43:53.245Z,651.00
2024-03-20T00:44:53.213Z,651.00
2024-03-20T00:45:53.238Z,652.00
2024-03-20T00:46:53.207Z,651.00
2024-03-20T00:47:53.211Z,650.00
2024-03-20T00:48:53.207Z,653.00
2024-03-20T00:49:53.202Z,651.00
2024-03-20T00:50:53.194Z,651.00
2024-03-20T00:51:53.185Z,651.00
2024-03-20T00:52:53.333Z,650.00
2024-03-20T00:53:53.180Z,654.00
2024-03-20T00:54:53.179Z,656.00
2024-03-20T00:55:53.173Z,653.00
2024-03-20T00:56:53.164Z,652.00
2024-03-20T00:57:53.166Z,651.00
2024-03-20T00:58:53.174Z,651.00
2024-03-20T00:59:53.166Z,652.00
2024-03-20T01:00:53.182Z,653.00
2024-03-20T01:01:53.170Z,654.00
2024-03-20T01:02:53.159Z,655.00
2024-03-20T01:03:53.159Z,655.00
2024-03-20T01:04:53.169Z,656.00
2024-03-20T01:05:53.152Z,655.00
2024-03-20T01:06:53.159Z,657.00
2024-03-20T01:07:53.149Z,654.00
2024-03-20T01:08:53.152Z,659.00
2024-03-20T01:09:53.145Z,657.00
2024-03-20T01:10:53.142Z,655.00
2024-03-20T01:11:53.143Z,656.00
2024-03-20T01:12:53.147Z,656.00
2024-03-20T01:13:53.135Z,654.00
2024-03-20T01:14:53.138Z,655.00
2024-03-20T01:15:53.138Z,657.00
2024-03-20T01:16:53.134Z,656.00
2024-03-20T01:17:53.134Z,656.00
2024-03-20T01:18:53.132Z,655.00
2024-03-20T01:19:53.121Z,654.00
2024-03-20T01:20:53.125Z,651.00
2024-03-20T01:21:53.124Z,650.00
2024-03-20T01:22:53.125Z,651.00
2024-03-20T01:23:53.132Z,653.00
2024-03-20T01:24:53.120Z,655.00
2024-03-20T01:25:53.120Z,655.00
2024-03-20T01:26:53.117Z,654.00
2024-03-20T01:27:53.113Z,652.00
2024-03-20T01:28:53.106Z,651.00
2024-03-20T01:29:53.099Z,652.00
2024-03-20T01:30:53.096Z,653.00
2024-03-20T01:31:53.101Z,650.00
2024-03-20T01:32:53.171Z,649.00
2024-03-20T01:33:53.105Z,650.00
2024-03-20T01:34:53.107Z,650.00
2024-03-20T01:35:53.089Z,652.00
2024-03-20T01:36:53.091Z,651.00
2024-03-20T01:37:53.103Z,652.00
2024-03-20T01:38:53.102Z,649.00
2024-03-20T01:39:53.098Z,646.00
2024-03-20T01:40:53.116Z,647.00
2024-03-20T01:41:53.117Z,647.00
2024-03-20T01:42:53.113Z,647.00
2024-03-20T01:43:53.139Z,650.00
2024-03-20T01:44:53.119Z,647.00
2024-03-20T01:45:53.129Z,649.00
2024-03-20T01:46:53.148Z,648.00
2024-03-20T01:47:53.133Z,648.00
2024-03-20T01:48:53.140Z,647.00
2024-03-20T01:49:53.131Z,647.00
2024-03-20T01:50:53.144Z,646.00
2024-03-20T01:51:53.142Z,647.00
2024-03-20T01:52:53.144Z,647.00
2024-03-20T01:53:53.138Z,650.00
2024-03-20T01:54:53.135Z,649.00
2024-03-20T01:55:53.143Z,650.00
2024-03-20T01:56:53.133Z,655.00
2024-03-20T01:57:53.123Z,655.00
2024-03-20T01:58:53.118Z,645.00
2024-03-20T01:59:53.118Z,647.00
2024-03-20T02:00:53.124Z,647.00
2024-03-20T02:01:53.100Z,646.00
2024-03-20T02:02:53.099Z,647.00
2024-03-20T02:03:53.099Z,646.00
2024-03-20T02:04:53.083Z,648.00
2024-03-20T02:05:53.110Z,647.00
2024-03-20T02:06:53.081Z,648.00
2024-03-20T02:07:53.082Z,649.00
2024-03-20T02:08:53.088Z,647.00
2024-03-20T02:09:53.083Z,643.00
2024-03-20T02:10:53.084Z,644.00
2024-03-20T02:11:53.077Z,647.00
2024-03-20T02:12:53.078Z,650.00
2024-03-20T02:13:53.077Z,650.00
2024-03-20T02:14:53.077Z,652.00
2024-03-20T02:15:53.074Z,652.00
2024-03-20T02:16:53.075Z,652.00
2024-03-20T02:17:53.073Z,648.00
2024-03-20T02:18:53.074Z,649.00
2024-03-20T02:19:53.080Z,646.00
2024-03-20T02:20:53.091Z,647.00
2024-03-20T02:21:53.100Z,646.00
2024-03-20T02:22:53.098Z,646.00
2024-03-20T02:23:53.097Z,646.00
2024-03-20T02:24:53.098Z,648.00
2024-03-20T02:25:53.104Z,649.00
2024-03-20T02:26:53.096Z,650.00
2024-03-20T02:27:53.093Z,651.00
2024-03-20T02:28:53.101Z,653.00
2024-03-20T02:29:53.097Z,651.00
2024-03-20T02:30:53.094Z,651.00
2024-03-20T02:31:53.078Z,650.00
2024-03-20T02:32:53.064Z,651.00
2024-03-20T02:33:53.113Z,652.00
2024-03-20T02:34:53.060Z,651.00
2024-03-20T02:35:53.063Z,652.00
2024-03-20T02:36:53.052Z,653.00
2024-03-20T02:37:53.064Z,652.00
2024-03-20T02:38:53.046Z,652.00
2024-03-20T02:39:53.069Z,652.00
2024-03-20T02:40:53.047Z,652.00
2024-03-20T02:41:53.054Z,652.00
2024-03-20T02:42:53.050Z,651.00
2024-03-20T02:43:53.042Z,650.00
2024-03-20T02:44:53.043Z,651.00
2024-03-20T02:45:53.043Z,651.00
2024-03-20T02:46:53.044Z,649.00
2024-03-20T02:47:53.054Z,649.00
2024-03-20T02:48:53.047Z,648.00
2024-03-20T02:49:53.041Z,646.00
2024-03-20T02:50:53.050Z,645.00
2024-03-20T02:51:53.047Z,645.00
2024-03-20T02:52:53.044Z,642.00
2024-03-20T02:53:53.037Z,639.00
2024-03-20T02:54:53.044Z,640.00
2024-03-20T02:55:53.042Z,641.00
2024-03-20T02:56:53.048Z,641.00
2024-03-20T02:57:53.064Z,642.00
2024-03-20T02:58:53.084Z,637.00
2024-03-20T02:59:53.109Z,638.00
2024-03-20T03:00:53.117Z,640.00
2024-03-20T03:01:53.130Z,638.00
2024-03-20T03:02:53.140Z,638.00
2024-03-20T03:03:53.156Z,637.00
2024-03-20T03:04:53.170Z,638.00
2024-03-20T03:05:53.199Z,643.00
2024-03-20T03:06:53.205Z,642.00
2024-03-20T03:07:53.231Z,638.00
2024-03-20T03:08:53.218Z,639.00
2024-03-20T03:09:53.235Z,636.00
2024-03-20T03:10:53.492Z,633.00
2024-03-20T03:11:53.262Z,632.00
2024-03-20T03:12:53.277Z,632.00
2024-03-20T03:13:53.284Z,631.00
2024-03-20T03:14:58.343Z,631.00
2024-03-20T03:15:54.292Z,631.00
2024-03-20T03:16:53.993Z,631.00
2024-03-20T03:17:53.298Z,630.00
2024-03-20T03:18:53.289Z,631.00
2024-03-20T03:19:53.286Z,629.00
2024-03-20T03:20:53.297Z,629.00
2024-03-20T03:21:53.296Z,632.00
2024-03-20T03:22:53.298Z,635.00
2024-03-20T03:23:53.289Z,638.00
2024-03-20T03:24:53.296Z,638.00
2024-03-20T03:25:53.299Z,640.00
2024-03-20T03:26:53.296Z,634.00
2024-03-20T03:27:53.294Z,633.00
2024-03-20T03:28:53.303Z,632.00
2024-03-20T03:29:53.302Z,630.00
2024-03-20T03:30:53.305Z,629.00
2024-03-20T03:31:54.009Z,630.00
2024-03-20T03:32:53.308Z,630.00
2024-03-20T03:33:53.313Z,631.00
2024-03-20T03:34:53.321Z,629.00
2024-03-20T03:35:53.325Z,629.00
2024-03-20T03:36:53.336Z,634.00
2024-03-20T03:37:53.346Z,633.00
2024-03-20T03:38:53.344Z,632.00
2024-03-20T03:39:53.341Z,632.00
2024-03-20T03:40:53.339Z,635.00
2024-03-20T03:41:53.336Z,634.00
2024-03-20T03:42:53.339Z,633.00
2024-03-20T03:43:53.353Z,633.00
2024-03-20T03:44:53.340Z,634.00
2024-03-20T03:45:53.346Z,634.00
2024-03-20T03:46:53.336Z,636.00
2024-03-20T03:47:53.348Z,635.00
2024-03-20T03:48:53.340Z,633.00
2024-03-20T03:49:53.340Z,636.00
2024-03-20T03:50:53.347Z,635.00
2024-03-20T03:51:53.354Z,632.00
2024-03-20T03:52:53.355Z,630.00
2024-03-20T03:53:53.379Z,634.00
2024-03-20T03:54:53.390Z,634.00
2024-03-20T03:55:53.425Z,634.00
2024-03-20T03:56:53.450Z,631.00
2024-03-20T03:57:53.464Z,630.00
2024-03-20T03:58:53.492Z,630.00
2024-03-20T03:59:53.498Z,629.00
2024-03-20T04:00:53.518Z,630.00
2024-03-20T04:01:53.534Z,630.00
2024-03-20T04:02:53.547Z,631.00
2024-03-20T04:03:53.557Z,631.00
2024-03-20T04:04:53.590Z,629.00
2024-03-20T04:05:53.621Z,629.00
2024-03-20T04:06:53.637Z,629.00
2024-03-20T04:07:53.654Z,632.00
2024-03-20T04:08:53.673Z,633.00
2024-03-20T04:09:53.699Z,633.00
2024-03-20T04:10:53.719Z,630.00
2024-03-20T04:11:53.734Z,632.00
2024-03-20T04:12:53.748Z,629.00
2024-03-20T04:13:53.752Z,634.00
2024-03-20T04:14:53.755Z,636.00
2024-03-20T04:15:53.811Z,636.00
2024-03-20T04:16:53.805Z,633.00
2024-03-20T04:17:53.813Z,635.00
2024-03-20T04:18:53.839Z,632.00
2024-03-20T04:19:53.849Z,625.00
2024-03-20T04:20:53.879Z,624.00
2024-03-20T04:21:53.881Z,625.00
2024-03-20T04:22:53.918Z,622.00
2024-03-20T04:23:53.933Z,628.00
2024-03-20T04:24:54.010Z,631.00
2024-03-20T04:25:54.072Z,633.00
2024-03-20T04:26:54.110Z,632.00
2024-03-20T04:27:54.120Z,632.00
2024-03-20T04:28:54.124Z,632.00
2024-03-20T04:29:54.141Z,630.00
2024-03-20T04:30:54.159Z,630.00
2024-03-20T04:31:54.167Z,626.00
2024-03-20T04:32:54.183Z,624.00
2024-03-20T04:33:54.245Z,629.00
2024-03-20T04:34:54.271Z,628.00
2024-03-20T04:35:54.287Z,629.00
2024-03-20T04:36:54.295Z,628.00
2024-03-20T04:37:54.316Z,624.00
2024-03-20T04:38:54.353Z,627.00
2024-03-20T04:39:54.369Z,629.00
2024-03-20T04:40:54.391Z,633.00
2024-03-20T04:41:54.402Z,630.00
2024-03-20T04:42:54.424Z,632.00
2024-03-20T04:43:54.434Z,628.00
2024-03-20T04:44:54.456Z,630.00
2024-03-20T04:45:54.494Z,630.00
2024-03-20T04:46:54.528Z,630.00
2024-03-20T04:47:54.535Z,629.00
2024-03-20T04:48:54.546Z,626.00
2024-03-20T04:49:54.545Z,626.00
2024-03-20T04:50:54.567Z,627.00
2024-03-20T04:51:54.589Z,627.00
2024-03-20T04:52:54.597Z,628.00
2024-03-20T04:53:54.607Z,627.00
2024-03-20T04:54:54.627Z,625.00
2024-03-20T04:55:54.673Z,626.00
2024-03-20T04:56:54.692Z,622.00
2024-03-20T04:57:54.719Z,620.00
2024-03-20T04:59:02.078Z,662.00
2024-03-20T05:00:02.101Z,656.00
2024-03-20T05:01:02.131Z,651.00
2024-03-20T05:02:02.079Z,648.00
2024-03-20T05:03:02.077Z,648.00
2024-03-20T05:04:02.090Z,647.00
2024-03-20T05:05:02.093Z,647.00
2024-03-20T05:06:02.095Z,647.00
2024-03-20T05:07:02.084Z,647.00
2024-03-20T05:08:02.089Z,646.00
2024-03-20T05:09:02.089Z,644.00
2024-03-20T05:10:02.154Z,645.00
2024-03-20T05:11:02.117Z,644.00
2024-03-20T05:12:02.086Z,645.00
2024-03-20T05:13:02.098Z,645.00
2024-03-20T05:14:02.102Z,645.00
2024-03-20T05:15:02.101Z,640.00
2024-03-20T05:16:02.098Z,640.00
2024-03-20T05:17:02.091Z,639.00
2024-03-20T05:18:02.106Z,639.00
2024-03-20T05:19:02.084Z,638.00
2024-03-20T05:20:02.091Z,637.00
2024-03-20T05:21:02.097Z,638.00
2024-03-20T05:22:02.108Z,637.00
2024-03-20T05:23:02.072Z,637.00
2024-03-20T05:24:02.079Z,640.00
2024-03-20T05:25:02.099Z,639.00
2024-03-20T05:26:02.099Z,641.00
2024-03-20T05:27:02.092Z,642.00
2024-03-20T05:28:02.106Z,645.00
2024-03-20T05:29:02.096Z,647.00
2024-03-20T05:30:02.089Z,646.00
2024-03-20T05:31:02.087Z,646.00
2024-03-20T05:32:02.088Z,645.00
2024-03-20T05:33:02.090Z,644.00
2024-03-20T05:34:02.082Z,646.00
2024-03-20T05:35:02.092Z,649.00
2024-03-20T05:36:02.074Z,646.00
2024-03-20T05:37:02.069Z,648.00
2024-03-20T05:38:02.073Z,646.00
2024-03-20T05:39:02.067Z,645.00
2024-03-20T05:40:02.087Z,646.00
2024-03-20T05:41:02.091Z,643.00
2024-03-20T05:42:02.078Z,645.00
2024-03-20T05:43:02.069Z,641.00
2024-03-20T05:44:02.087Z,639.00
2024-03-20T05:45:02.125Z,640.00
2024-03-20T05:46:02.174Z,643.00
2024-03-20T05:47:02.232Z,643.00
2024-03-20T05:48:02.270Z,643.00
2024-03-20T05:49:02.320Z,641.00
2024-03-20T05:50:02.384Z,641.00
2024-03-20T05:51:02.407Z,642.00
2024-03-20T05:52:02.436Z,644.00
2024-03-20T05:53:02.477Z,644.00
2024-03-20T05:54:02.502Z,644.00
2024-03-20T05:55:02.548Z,642.00
2024-03-20T05:56:02.578Z,641.00
2024-03-20T05:57:02.624Z,640.00
2024-03-20T05:58:02.682Z,639.00
2024-03-20T05:59:02.734Z,641.00
2024-03-20T06:00:02.806Z,639.00
2024-03-20T06:01:02.823Z,639.00
2024-03-20T06:02:02.859Z,636.00
2024-03-20T06:03:02.908Z,636.00
2024-03-20T06:04:02.953Z,636.00
2024-03-20T06:05:03.705Z,639.00
2024-03-20T06:06:03.034Z,637.00
2024-03-20T06:07:03.105Z,641.00
2024-03-20T06:08:03.181Z,641.00
2024-03-20T06:09:18.225Z,639.00
2024-03-20T06:10:03.222Z,642.00
2024-03-20T06:11:03.241Z,642.00
2024-03-20T06:12:03.222Z,640.00
2024-03-20T06:13:03.227Z,639.00
2024-03-20T06:14:03.229Z,640.00
2024-03-20T06:15:03.222Z,641.00
2024-03-20T06:16:03.217Z,639.00
2024-03-20T06:17:04.474Z,639.00
2024-03-20T06:18:03.215Z,639.00
2024-03-20T06:19:03.248Z,641.00
2024-03-20T06:20:04.129Z,644.00
2024-03-20T06:21:03.343Z,646.00
2024-03-20T06:22:03.399Z,644.00
2024-03-20T06:23:03.426Z,648.00
2024-03-20T06:24:03.476Z,671.00
2024-03-20T06:25:03.518Z,662.00
2024-03-20T06:26:03.564Z,665.00
2024-03-20T06:27:03.591Z,757.00
2024-03-20T06:28:03.601Z,841.00
2024-03-20T06:29:03.631Z,838.00
2024-03-20T06:30:03.722Z,882.00
2024-03-20T06:31:03.754Z,893.00
2024-03-20T06:32:03.815Z,896.00
2024-03-20T06:33:03.861Z,797.00
2024-03-20T06:34:03.872Z,786.00
2024-03-20T06:35:05.716Z,754.00
2024-03-20T06:36:04.072Z,847.00
2024-03-20T06:37:04.710Z,788.00
2024-03-20T06:38:03.971Z,724.00
2024-03-20T06:39:04.027Z,741.00
2024-03-20T06:40:04.085Z,727.00
2024-03-20T06:41:04.639Z,742.00
2024-03-20T06:42:04.232Z,717.00
2024-03-20T06:43:04.249Z,703.00
2024-03-20T06:44:04.287Z,704.00
2024-03-20T06:45:04.291Z,723.00
2024-03-20T06:46:04.313Z,722.00
2024-03-20T06:47:04.336Z,726.00
2024-03-20T06:48:04.358Z,735.00
2024-03-20T06:49:04.369Z,751.00
2024-03-20T06:50:04.436Z,738.00
2024-03-20T06:51:05.222Z,693.00
2024-03-20T06:52:04.486Z,697.00
2024-03-20T06:53:04.507Z,697.00
2024-03-20T06:54:04.537Z,705.00
2024-03-20T06:55:04.555Z,721.00
2024-03-20T06:56:04.585Z,812.00
2024-03-20T06:57:04.649Z,786.00
2024-03-20T06:58:04.714Z,841.00
2024-03-20T06:59:04.786Z,827.00
2024-03-20T07:00:04.853Z,811.00
2024-03-20T07:01:04.966Z,815.00
2024-03-20T07:02:04.980Z,813.00
2024-03-20T07:03:05.048Z,817.00
2024-03-20T07:04:05.096Z,824.00
2024-03-20T07:05:05.163Z,824.00
2024-03-20T07:06:05.194Z,850.00
2024-03-20T07:07:05.248Z,856.00
2024-03-20T07:08:05.294Z,870.00
2024-03-20T07:09:05.320Z,875.00
2024-03-20T07:10:05.354Z,879.00
2024-03-20T07:11:05.376Z,889.00
2024-03-20T07:12:05.389Z,897.00
2024-03-20T07:13:05.409Z,935.00
2024-03-20T07:14:05.414Z,921.00
2024-03-20T07:15:05.441Z,924.00
2024-03-20T07:16:05.459Z,927.00
2024-03-20T07:17:05.486Z,937.00
2024-03-20T07:18:05.505Z,953.00
2024-03-20T07:19:05.507Z,1121.00
2024-03-20T07:20:05.527Z,991.00
2024-03-20T07:21:05.584Z,1045.00
2024-03-20T07:22:05.661Z,1010.00
2024-03-20T07:23:05.716Z,1015.00
2024-03-20T07:24:05.789Z,1005.00
2024-03-20T07:25:05.846Z,1123.00
2024-03-20T07:26:05.912Z,1129.00
2024-03-20T07:27:05.980Z,1064.00
2024-03-20T07:28:06.029Z,1084.00
2024-03-20T07:29:06.066Z,1184.00
2024-03-20T07:30:06.116Z,1103.00
2024-03-20T07:31:06.169Z,1295.00
2024-03-20T07:32:06.191Z,1130.00
2024-03-20T07:33:06.234Z,1245.00
2024-03-20T07:34:06.316Z,1275.00
2024-03-20T07:35:06.302Z,1227.00
2024-03-20T07:36:06.336Z,1261.00
2024-03-20T07:37:06.359Z,1334.00
2024-03-20T07:38:06.401Z,1344.00
2024-03-20T07:39:06.415Z,1395.00
2024-03-20T07:40:06.437Z,1425.00
2024-03-20T07:41:06.455Z,1442.00
2024-03-20T07:42:06.472Z,1473.00
2024-03-20T07:43:06.491Z,1513.00
2024-03-20T07:44:06.499Z,1516.00
2024-03-20T07:45:06.512Z,1519.00
2024-03-20T07:46:06.521Z,1531.00
2024-03-20T07:47:06.516Z,1557.00
2024-03-20T07:48:06.586Z,1571.00
2024-03-20T07:49:06.518Z,1572.00
2024-03-20T07:50:06.547Z,1616.00
2024-03-20T07:51:06.530Z,1613.00
2024-03-20T07:52:06.550Z,1620.00
2024-03-20T07:53:07.202Z,1758.00
2024-03-20T07:54:06.511Z,1708.00
2024-03-20T07:55:06.517Z,1708.00
2024-03-20T07:56:06.537Z,1759.00
2024-03-20T07:57:06.506Z,1760.00
2024-03-20T07:58:07.559Z,1766.00
2024-03-20T07:59:06.591Z,1775.00
2024-03-20T08:00:07.254Z,1763.00
2024-03-20T08:01:07.257Z,1729.00
2024-03-20T08:02:06.571Z,1724.00
2024-03-20T08:03:06.586Z,1685.00
2024-03-20T08:04:06.542Z,1710.00
2024-03-20T08:05:06.605Z,1704.00
2024-03-20T08:06:06.537Z,1708.00
2024-03-20T08:07:06.552Z,1541.00
2024-03-20T08:08:06.530Z,1377.00
2024-03-20T08:09:06.517Z,1310.00
2024-03-20T08:10:06.541Z,1299.00
2024-03-20T08:11:06.521Z,1235.00
2024-03-20T08:12:06.621Z,1208.00
2024-03-20T08:13:06.556Z,1296.00
2024-03-20T08:14:06.570Z,1228.00
2024-03-20T08:15:06.584Z,1207.00
2024-03-20T08:16:06.598Z,1191.00
2024-03-20T08:17:06.618Z,1086.00
2024-03-20T08:18:06.615Z,1108.00
2024-03-20T08:19:06.628Z,1123.00
2024-03-20T08:20:06.653Z,1133.00
2024-03-20T08:21:07.253Z,1237.00
2024-03-20T08:22:06.750Z,1356.00
2024-03-20T08:23:06.744Z,1158.00
2024-03-20T08:24:06.775Z,1151.00
2024-03-20T08:25:06.862Z,1113.00
2024-03-20T08:26:07.750Z,1079.00
2024-03-20T08:27:06.886Z,1080.00
2024-03-20T08:28:06.926Z,1014.00
2024-03-20T08:29:06.943Z,987.00
2024-03-20T08:30:06.973Z,1093.00
2024-03-20T08:31:07.863Z,952.00
2024-03-20T08:32:07.063Z,942.00
2024-03-20T08:33:07.189Z,1050.00
2024-03-20T08:34:07.151Z,997.00
2024-03-20T08:35:07.087Z,907.00
2024-03-20T08:36:07.761Z,962.00
2024-03-20T08:37:07.144Z,970.00
2024-03-20T08:38:08.143Z,986.00
2024-03-20T08:39:07.335Z,1026.00
2024-03-20T08:40:07.156Z,993.00
2024-03-20T08:41:07.221Z,936.00
2024-03-20T08:42:07.972Z,1268.00
2024-03-20T08:43:17.769Z,982.00
2024-03-20T08:44:08.084Z,1039.00
2024-03-20T08:45:07.069Z,1084.00
2024-03-20T08:46:07.081Z,1072.00
2024-03-20T08:47:07.109Z,967.00
2024-03-20T08:48:07.075Z,1246.00
2024-03-20T08:49:06.996Z,1059.00
2024-03-20T08:50:06.988Z,973.00
2024-03-20T08:51:06.982Z,1023.00
2024-03-20T08:52:06.999Z,917.00
2024-03-20T08:53:07.790Z,970.00
2024-03-20T08:54:06.962Z,1017.00
2024-03-20T08:55:06.998Z,1096.00
2024-03-20T08:56:06.948Z,963.00
2024-03-20T08:57:07.768Z,970.00
2024-03-20T08:58:07.698Z,966.00
2024-03-20T08:59:07.729Z,1049.00
2024-03-20T09:00:06.891Z,1042.00
2024-03-20T09:01:06.817Z,1089.00
2024-03-20T09:02:06.806Z,998.00
2024-03-20T09:03:06.838Z,1072.00
2024-03-20T09:04:06.771Z,969.00
2024-03-20T09:05:06.753Z,951.00
2024-03-20T09:06:06.752Z,922.00
2024-03-20T09:07:06.768Z,990.00
2024-03-20T09:08:06.773Z,958.00
2024-03-20T09:09:06.796Z,1038.00
2024-03-20T09:10:06.796Z,1037.00
2024-03-20T09:11:06.945Z,1005.00
2024-03-20T09:12:07.283Z,1045.00
2024-03-20T09:13:06.773Z,1019.00
2024-03-20T09:14:06.768Z,998.00
2024-03-20T09:15:06.781Z,1000.00
2024-03-20T09:16:06.770Z,973.00
2024-03-20T09:17:06.802Z,957.00
2024-03-20T09:18:06.782Z,945.00
2024-03-20T09:19:06.796Z,952.00
2024-03-20T09:20:06.789Z,953.00
2024-03-20T09:21:06.789Z,928.00
2024-03-20T09:22:06.802Z,928.00
2024-03-20T09:23:06.842Z,840.00
2024-03-20T09:24:06.879Z,864.00
2024-03-20T09:25:06.861Z,867.00
2024-03-20T09:26:07.010Z,850.00
2024-03-20T09:27:07.086Z,838.00
2024-03-20T09:28:06.954Z,827.00
2024-03-20T09:29:06.979Z,774.00
2024-03-20T09:30:07.181Z,767.00
2024-03-20T09:31:07.148Z,762.00
2024-03-20T09:32:07.052Z,760.00
2024-03-20T09:33:07.145Z,761.00
2024-03-20T09:34:07.797Z,747.00
2024-03-20T09:35:07.303Z,742.00
2024-03-20T09:36:07.797Z,738.00
2024-03-20T09:37:07.412Z,726.00
2024-03-20T09:38:07.311Z,718.00
2024-03-20T09:39:07.375Z,709.00
2024-03-20T09:40:07.293Z,704.00
2024-03-20T09:41:07.332Z,702.00
2024-03-20T09:42:07.359Z,692.00
2024-03-20T09:43:07.399Z,686.00
2024-03-20T09:44:07.457Z,673.00
2024-03-20T09:45:07.440Z,638.00
2024-03-20T09:46:07.478Z,631.00
2024-03-20T09:47:07.520Z,632.00
2024-03-20T09:48:07.530Z,630.00
2024-03-20T09:49:07.556Z,628.00
2024-03-20T09:50:07.593Z,625.00
2024-03-20T09:51:08.216Z,622.00
2024-03-20T09:52:08.298Z,619.00
2024-03-20T09:53:07.696Z,615.00
2024-03-20T09:54:07.775Z,605.00
2024-03-20T09:55:07.766Z,595.00
2024-03-20T09:56:07.802Z,589.00
2024-03-20T09:57:07.833Z,588.00
2024-03-20T09:58:07.877Z,584.00
2024-03-20T09:59:07.927Z,577.00
2024-03-20T10:00:07.949Z,580.00
2024-03-20T10:01:08.026Z,577.00
2024-03-20T10:02:08.025Z,570.00
2024-03-20T10:03:08.066Z,563.00
2024-03-20T10:04:08.095Z,558.00
2024-03-20T10:05:09.726Z,555.00
2024-03-20T10:06:08.167Z,554.00
2024-03-20T10:07:08.206Z,551.00
2024-03-20T10:08:08.248Z,547.00
2024-03-20T10:09:08.277Z,544.00
2024-03-20T10:10:08.326Z,544.00
2024-03-20T10:11:08.366Z,543.00
2024-03-20T10:12:08.395Z,540.00
2024-03-20T10:13:08.428Z,538.00
2024-03-20T10:14:08.471Z,534.00
2024-03-20T10:15:09.692Z,530.00
2024-03-20T10:16:19.284Z,526.00
2024-03-20T10:17:10.659Z,525.00
2024-03-20T10:18:08.534Z,523.00
2024-03-20T10:19:08.547Z,523.00
2024-03-20T10:20:08.532Z,524.00
2024-03-20T10:21:10.851Z,524.00
2024-03-20T10:22:08.615Z,517.00
2024-03-20T10:23:09.380Z,515.00
2024-03-20T10:24:11.233Z,515.00
2024-03-20T10:25:08.835Z,512.00
2024-03-20T10:26:08.876Z,512.00
2024-03-20T10:27:10.970Z,508.00
2024-03-20T10:28:09.814Z,506.00
2024-03-20T10:29:08.999Z,504.00
2024-03-20T10:30:15.317Z,506.00
2024-03-20T10:31:16.786Z,502.00
2024-03-20T10:32:10.035Z,502.00
2024-03-20T10:33:09.048Z,502.00
2024-03-20T10:34:09.734Z,499.00
2024-03-20T10:35:11.006Z,496.00
2024-03-20T10:36:09.063Z,492.00
2024-03-20T10:37:09.063Z,488.00
2024-03-20T10:38:09.048Z,488.00
2024-03-20T10:39:15.572Z,485.00
2024-03-20T10:40:10.059Z,481.00
2024-03-20T10:41:10.408Z,483.00
2024-03-20T10:42:09.059Z,481.00
2024-03-20T10:43:09.043Z,482.00
2024-03-20T10:44:09.070Z,482.00
2024-03-20T10:45:09.054Z,478.00
2024-03-20T10:46:09.023Z,478.00
2024-03-20T10:47:10.731Z,479.00
2024-03-20T10:48:09.006Z,478.00
2024-03-20T10:49:09.038Z,478.00
2024-03-20T10:50:09.009Z,478.00
2024-03-20T10:51:09.741Z,478.00
2024-03-20T10:52:09.000Z,477.00
2024-03-20T10:53:10.850Z,477.00
2024-03-20T10:54:09.046Z,478.00
2024-03-20T10:55:09.084Z,478.00
2024-03-20T10:56:09.140Z,479.00
2024-03-20T10:57:09.191Z,479.00
2024-03-20T10:58:09.213Z,483.00
2024-03-20T10:59:10.763Z,485.00
2024-03-20T11:00:09.299Z,482.00
2024-03-20T11:01:12.463Z,480.00
2024-03-20T11:02:09.324Z,477.00
2024-03-20T11:03:09.320Z,478.00
2024-03-20T11:04:09.319Z,479.00
2024-03-20T11:05:10.921Z,480.00
2024-03-20T11:06:09.311Z,479.00
2024-03-20T11:07:09.313Z,485.00
2024-03-20T11:08:09.300Z,484.00
2024-03-20T11:09:09.308Z,482.00
2024-03-20T11:10:09.300Z,481.00
2024-03-20T11:11:11.552Z,483.00
2024-03-20T11:12:09.303Z,658.00
2024-03-20T11:13:09.290Z,581.00
2024-03-20T11:14:10.354Z,559.00
2024-03-20T11:15:09.297Z,596.00
2024-03-20T11:16:09.268Z,603.00
2024-03-20T11:17:10.918Z,630.00
2024-03-20T11:18:10.258Z,646.00
2024-03-20T11:19:09.280Z,748.00
2024-03-20T11:20:09.249Z,752.00
2024-03-20T11:21:09.239Z,914.00
2024-03-20T11:22:09.227Z,834.00
2024-03-20T11:23:09.214Z,835.00
2024-03-20T11:24:09.757Z,775.00
2024-03-20T11:25:09.197Z,773.00
2024-03-20T11:26:09.184Z,894.00
2024-03-20T11:27:09.175Z,881.00
2024-03-20T11:28:09.154Z,897.00
2024-03-20T11:29:10.723Z,857.00
2024-03-20T11:30:09.141Z,870.00
2024-03-20T11:31:09.115Z,1088.00
2024-03-20T11:32:09.106Z,899.00
2024-03-20T11:33:09.094Z,871.00
2024-03-20T11:34:10.119Z,888.00
2024-03-20T11:35:09.090Z,883.00
2024-03-20T11:36:09.142Z,894.00
2024-03-20T11:37:09.152Z,877.00
2024-03-20T11:38:09.232Z,881.00
2024-03-20T11:39:09.248Z,867.00
2024-03-20T11:40:09.297Z,909.00
2024-03-20T11:41:09.834Z,920.00
2024-03-20T11:42:09.379Z,980.00
2024-03-20T11:43:09.432Z,992.00
2024-03-20T11:44:10.705Z,985.00
2024-03-20T11:45:09.605Z,987.00
2024-03-20T11:46:09.647Z,1033.00
2024-03-20T11:47:10.183Z,992.00
2024-03-20T11:48:09.748Z,922.00
2024-03-20T11:49:09.778Z,1026.00
2024-03-20T11:50:09.821Z,972.00
2024-03-20T11:51:09.873Z,956.00
2024-03-20T11:52:09.928Z,1027.00
2024-03-20T11:53:10.041Z,1130.00
2024-03-20T11:54:10.034Z,1109.00
2024-03-20T11:55:10.053Z,1106.00
2024-03-20T11:56:10.100Z,1107.00
2024-03-20T11:57:10.145Z,1119.00
2024-03-20T11:58:10.195Z,1115.00
2024-03-20T11:59:10.248Z,1106.00
2024-03-20T12:00:10.845Z,1110.00
2024-03-20T12:01:10.335Z,1098.00
2024-03-20T12:02:10.378Z,1124.00
2024-03-20T12:03:10.410Z,1126.00
2024-03-20T12:04:10.451Z,1076.00
2024-03-20T12:05:10.461Z,1153.00
2024-03-20T12:06:10.523Z,1171.00
2024-03-20T12:07:11.489Z,1177.00
2024-03-20T12:08:10.462Z,1174.00
2024-03-20T12:09:10.456Z,1183.00
2024-03-20T12:10:10.437Z,1181.00
2024-03-20T12:11:10.412Z,1182.00
2024-03-20T12:12:10.400Z,1184.00
2024-03-20T12:13:10.380Z,1183.00
2024-03-20T12:14:10.400Z,1184.00
2024-03-20T12:15:10.359Z,1179.00
2024-03-20T12:16:10.400Z,1180.00
2024-03-20T12:17:10.439Z,1183.00
2024-03-20T12:18:10.474Z,1184.00
2024-03-20T12:19:10.519Z,1186.00
2024-03-20T12:20:10.574Z,1189.00
2024-03-20T12:21:10.606Z,1187.00
2024-03-20T12:22:10.627Z,1185.00
2024-03-20T12:23:10.668Z,1181.00
2024-03-20T12:24:10.664Z,1185.00
2024-03-20T12:25:10.715Z,1181.00
2024-03-20T12:26:10.707Z,1184.00
2024-03-20T12:27:10.714Z,1189.00